sensor_id;sensor_type;location;lat;lon;timestamp;P1;durP1;ratioP1;P2;durP2;ratioP2
6143;SDS011;3103;49.492;8.474;2022-10-30T00:01:16;22.77;;;12.70;;
6143;SDS011;3103;49.492;8.474;2022-10-30T00:03:43;17.20;;;7.90;;
6143;SDS011;3103;49.492;8.474;2022-10-30T00:06:10;17.63;;;7.77;;
6143;SDS011;3103;49.492;8.474;2022-10-30T00:08:36;16.70;;;6.60;;
6143;SDS011;3103;49.492;8.474;2022-10-30T00:11:04;10.20;;;7.10;;
6143;SDS011;3103;49.492;8.474;2022-10-30T00:13:34;12.97;;;6.80;;
6143;SDS011;3103;49.492;8.474;2022-10-30T00:16:03;19.83;;;7.17;;
6143;SDS011;3103;49.492;8.474;2022-10-30T00:18:31;16.30;;;6.10;;
6143;SDS011;3103;49.492;8.474;2022-10-30T00:21:04;20.07;;;6.77;;
6143;SDS011;3103;49.492;8.474;2022-10-30T00:23:35;11.33;;;6.40;;
6143;SDS011;3103;49.492;8.474;2022-10-30T00:26:03;13.47;;;6.03;;
6143;SDS011;3103;49.492;8.474;2022-10-30T00:28:31;15.57;;;6.57;;
6143;SDS011;3103;49.492;8.474;2022-10-30T00:30:59;15.57;;;6.13;;
6143;SDS011;3103;49.492;8.474;2022-10-30T00:33:27;14.50;;;6.10;;
6143;SDS011;3103;49.492;8.474;2022-10-30T00:35:53;12.10;;;5.63;;
6143;SDS011;3103;49.492;8.474;2022-10-30T00:38:20;11.53;;;5.07;;
6143;SDS011;3103;49.492;8.474;2022-10-30T00:40:48;15.87;;;5.87;;
6143;SDS011;3103;49.492;8.474;2022-10-30T00:46:25;14.33;;;6.13;;
6143;SDS011;3103;49.492;8.474;2022-10-30T00:49:09;10.00;;;5.53;;
6143;SDS011;3103;49.492;8.474;2022-10-30T00:51:40;16.80;;;6.23;;
6143;SDS011;3103;49.492;8.474;2022-10-30T00:54:08;14.30;;;5.70;;
6143;SDS011;3103;49.492;8.474;2022-10-30T00:56:35;9.53;;;5.47;;
6143;SDS011;3103;49.492;8.474;2022-10-30T00:59:05;13.03;;;6.87;;
6143;SDS011;3103;49.492;8.474;2022-10-30T01:01:39;22.43;;;9.33;;
6143;SDS011;3103;49.492;8.474;2022-10-30T01:04:08;15.43;;;9.13;;
6143;SDS011;3103;49.492;8.474;2022-10-30T01:06:37;22.13;;;9.77;;
6143;SDS011;3103;49.492;8.474;2022-10-30T01:09:07;36.93;;;19.63;;
6143;SDS011;3103;49.492;8.474;2022-10-30T01:11:34;12.53;;;7.60;;
6143;SDS011;3103;49.492;8.474;2022-10-30T01:14:03;14.43;;;5.93;;
6143;SDS011;3103;49.492;8.474;2022-10-30T01:22:38;12.73;;;6.27;;
6143;SDS011;3103;49.492;8.474;2022-10-30T01:28:16;10.13;;;6.43;;
6143;SDS011;3103;49.492;8.474;2022-10-30T01:36:39;8.90;;;5.43;;
6143;SDS011;3103;49.492;8.474;2022-10-30T01:39:12;9.87;;;5.67;;
6143;SDS011;3103;49.492;8.474;2022-10-30T01:41:41;15.70;;;6.50;;
6143;SDS011;3103;49.492;8.474;2022-10-30T01:44:09;10.83;;;5.33;;
6143;SDS011;3103;49.492;8.474;2022-10-30T01:49:35;10.13;;;5.60;;
6143;SDS011;3103;49.492;8.474;2022-10-30T01:52:18;10.43;;;5.37;;
6143;SDS011;3103;49.492;8.474;2022-10-30T02:00:35;13.20;;;5.90;;
6143;SDS011;3103;49.492;8.474;2022-10-30T02:03:05;10.27;;;5.63;;
6143;SDS011;3103;49.492;8.474;2022-10-30T02:05:35;10.47;;;5.93;;
6143;SDS011;3103;49.492;8.474;2022-10-30T02:08:06;10.67;;;5.50;;
6143;SDS011;3103;49.492;8.474;2022-10-30T02:10:36;12.10;;;5.67;;
6143;SDS011;3103;49.492;8.474;2022-10-30T02:13:04;14.60;;;6.27;;
6143;SDS011;3103;49.492;8.474;2022-10-30T02:15:30;32.97;;;17.30;;
6143;SDS011;3103;49.492;8.474;2022-10-30T02:17:58;26.20;;;14.80;;
6143;SDS011;3103;49.492;8.474;2022-10-30T02:20:26;33.40;;;19.73;;
6143;SDS011;3103;49.492;8.474;2022-10-30T02:22:53;20.47;;;10.43;;
6143;SDS011;3103;49.492;8.474;2022-10-30T02:25:29;15.67;;;8.40;;
6143;SDS011;3103;49.492;8.474;2022-10-30T02:27:56;17.70;;;9.80;;
6143;SDS011;3103;49.492;8.474;2022-10-30T02:30:26;17.60;;;8.23;;
6143;SDS011;3103;49.492;8.474;2022-10-30T02:32:53;15.60;;;8.90;;
6143;SDS011;3103;49.492;8.474;2022-10-30T02:35:19;12.50;;;7.07;;
6143;SDS011;3103;49.492;8.474;2022-10-30T02:37:47;8.00;;;5.30;;
6143;SDS011;3103;49.492;8.474;2022-10-30T02:40:14;14.57;;;6.43;;
6143;SDS011;3103;49.492;8.474;2022-10-30T02:42:41;12.47;;;6.57;;
6143;SDS011;3103;49.492;8.474;2022-10-30T02:45:08;17.00;;;7.50;;
6143;SDS011;3103;49.492;8.474;2022-10-30T02:47:35;12.53;;;6.20;;
6143;SDS011;3103;49.492;8.474;2022-10-30T02:50:04;16.00;;;6.77;;
6143;SDS011;3103;49.492;8.474;2022-10-30T02:52:33;9.47;;;5.70;;
6143;SDS011;3103;49.492;8.474;2022-10-30T02:55:00;12.50;;;5.63;;
6143;SDS011;3103;49.492;8.474;2022-10-30T02:57:28;14.40;;;6.07;;
6143;SDS011;3103;49.492;8.474;2022-10-30T02:59:55;12.00;;;5.90;;
6143;SDS011;3103;49.492;8.474;2022-10-30T03:02:22;15.43;;;6.60;;
6143;SDS011;3103;49.492;8.474;2022-10-30T03:04:48;13.63;;;5.40;;
6143;SDS011;3103;49.492;8.474;2022-10-30T03:07:15;14.57;;;5.33;;
6143;SDS011;3103;49.492;8.474;2022-10-30T03:09:42;14.63;;;5.53;;
6143;SDS011;3103;49.492;8.474;2022-10-30T03:12:08;13.57;;;5.40;;
6143;SDS011;3103;49.492;8.474;2022-10-30T03:14:35;11.20;;;5.80;;
6143;SDS011;3103;49.492;8.474;2022-10-30T03:17:03;10.27;;;5.10;;
6143;SDS011;3103;49.492;8.474;2022-10-30T03:19:29;15.83;;;5.47;;
6143;SDS011;3103;49.492;8.474;2022-10-30T03:21:57;11.93;;;5.60;;
6143;SDS011;3103;49.492;8.474;2022-10-30T03:24:24;13.30;;;5.03;;
6143;SDS011;3103;49.492;8.474;2022-10-30T03:26:51;12.03;;;5.00;;
6143;SDS011;3103;49.492;8.474;2022-10-30T03:29:17;14.63;;;5.93;;
6143;SDS011;3103;49.492;8.474;2022-10-30T03:31:44;9.70;;;5.47;;
6143;SDS011;3103;49.492;8.474;2022-10-30T03:34:21;10.37;;;4.70;;
6143;SDS011;3103;49.492;8.474;2022-10-30T03:36:47;8.93;;;5.67;;
6143;SDS011;3103;49.492;8.474;2022-10-30T03:39:14;11.10;;;5.10;;
6143;SDS011;3103;49.492;8.474;2022-10-30T03:41:42;11.53;;;5.20;;
6143;SDS011;3103;49.492;8.474;2022-10-30T03:44:11;19.23;;;5.50;;
6143;SDS011;3103;49.492;8.474;2022-10-30T03:46:38;11.93;;;4.80;;
6143;SDS011;3103;49.492;8.474;2022-10-30T03:49:16;12.70;;;5.10;;
6143;SDS011;3103;49.492;8.474;2022-10-30T03:51:43;9.53;;;4.90;;
6143;SDS011;3103;49.492;8.474;2022-10-30T03:54:14;10.23;;;5.00;;
6143;SDS011;3103;49.492;8.474;2022-10-30T03:56:43;9.17;;;4.57;;
6143;SDS011;3103;49.492;8.474;2022-10-30T03:59:15;13.47;;;5.20;;
6143;SDS011;3103;49.492;8.474;2022-10-30T04:01:52;16.10;;;5.40;;
6143;SDS011;3103;49.492;8.474;2022-10-30T04:04:19;10.63;;;5.60;;
6143;SDS011;3103;49.492;8.474;2022-10-30T04:06:46;9.90;;;4.80;;
6143;SDS011;3103;49.492;8.474;2022-10-30T04:09:14;11.80;;;5.03;;
6143;SDS011;3103;49.492;8.474;2022-10-30T04:11:41;13.67;;;5.47;;
6143;SDS011;3103;49.492;8.474;2022-10-30T04:14:09;13.30;;;5.30;;
6143;SDS011;3103;49.492;8.474;2022-10-30T04:16:36;9.73;;;4.80;;
6143;SDS011;3103;49.492;8.474;2022-10-30T04:19:02;21.00;;;5.60;;
6143;SDS011;3103;49.492;8.474;2022-10-30T04:21:29;10.90;;;5.07;;
6143;SDS011;3103;49.492;8.474;2022-10-30T04:23:56;17.13;;;5.17;;
6143;SDS011;3103;49.492;8.474;2022-10-30T04:26:27;9.87;;;5.37;;
6143;SDS011;3103;49.492;8.474;2022-10-30T04:28:53;9.57;;;5.00;;
6143;SDS011;3103;49.492;8.474;2022-10-30T04:31:20;14.47;;;5.83;;
6143;SDS011;3103;49.492;8.474;2022-10-30T04:33:47;10.63;;;5.63;;
6143;SDS011;3103;49.492;8.474;2022-10-30T04:36:14;14.30;;;5.40;;
6143;SDS011;3103;49.492;8.474;2022-10-30T04:38:44;13.30;;;5.40;;
6143;SDS011;3103;49.492;8.474;2022-10-30T04:41:11;12.30;;;5.67;;
6143;SDS011;3103;49.492;8.474;2022-10-30T04:43:51;13.77;;;5.60;;
6143;SDS011;3103;49.492;8.474;2022-10-30T04:46:18;15.40;;;5.87;;
6143;SDS011;3103;49.492;8.474;2022-10-30T04:48:44;11.80;;;6.03;;
6143;SDS011;3103;49.492;8.474;2022-10-30T04:51:12;14.90;;;4.60;;
6143;SDS011;3103;49.492;8.474;2022-10-30T04:53:38;18.93;;;5.53;;
6143;SDS011;3103;49.492;8.474;2022-10-30T04:56:07;11.20;;;5.13;;
6143;SDS011;3103;49.492;8.474;2022-10-30T04:58:36;15.33;;;5.87;;
6143;SDS011;3103;49.492;8.474;2022-10-30T05:01:04;12.73;;;5.40;;
6143;SDS011;3103;49.492;8.474;2022-10-30T05:03:33;11.73;;;5.50;;
6143;SDS011;3103;49.492;8.474;2022-10-30T05:06:04;10.30;;;4.97;;
6143;SDS011;3103;49.492;8.474;2022-10-30T05:08:32;14.83;;;5.57;;
6143;SDS011;3103;49.492;8.474;2022-10-30T05:11:06;16.50;;;5.70;;
6143;SDS011;3103;49.492;8.474;2022-10-30T05:13:32;12.73;;;5.30;;
6143;SDS011;3103;49.492;8.474;2022-10-30T05:15:59;11.37;;;5.10;;
6143;SDS011;3103;49.492;8.474;2022-10-30T05:18:26;12.00;;;5.93;;
6143;SDS011;3103;49.492;8.474;2022-10-30T05:20:53;10.43;;;4.70;;
6143;SDS011;3103;49.492;8.474;2022-10-30T05:23:21;13.20;;;5.07;;
6143;SDS011;3103;49.492;8.474;2022-10-30T05:25:48;10.67;;;5.00;;
6143;SDS011;3103;49.492;8.474;2022-10-30T05:28:14;10.83;;;5.00;;
6143;SDS011;3103;49.492;8.474;2022-10-30T05:30:51;14.83;;;5.53;;
6143;SDS011;3103;49.492;8.474;2022-10-30T05:33:43;8.90;;;4.73;;
6143;SDS011;3103;49.492;8.474;2022-10-30T05:36:10;11.07;;;5.37;;
6143;SDS011;3103;49.492;8.474;2022-10-30T05:38:37;10.23;;;5.33;;
6143;SDS011;3103;49.492;8.474;2022-10-30T05:41:07;13.83;;;5.83;;
6143;SDS011;3103;49.492;8.474;2022-10-30T05:43:34;12.90;;;5.57;;
6143;SDS011;3103;49.492;8.474;2022-10-30T05:46:01;12.27;;;5.50;;
6143;SDS011;3103;49.492;8.474;2022-10-30T05:48:28;12.97;;;6.80;;
6143;SDS011;3103;49.492;8.474;2022-10-30T05:50:55;13.30;;;5.77;;
6143;SDS011;3103;49.492;8.474;2022-10-30T05:53:27;14.37;;;6.00;;
6143;SDS011;3103;49.492;8.474;2022-10-30T05:55:55;14.67;;;5.97;;
6143;SDS011;3103;49.492;8.474;2022-10-30T05:58:26;12.83;;;5.93;;
6143;SDS011;3103;49.492;8.474;2022-10-30T06:00:56;12.63;;;6.00;;
6143;SDS011;3103;49.492;8.474;2022-10-30T06:03:44;13.03;;;6.00;;
6143;SDS011;3103;49.492;8.474;2022-10-30T06:06:11;14.60;;;6.63;;
6143;SDS011;3103;49.492;8.474;2022-10-30T06:08:38;9.50;;;5.93;;
6143;SDS011;3103;49.492;8.474;2022-10-30T06:11:21;12.00;;;6.23;;
6143;SDS011;3103;49.492;8.474;2022-10-30T06:13:52;14.20;;;6.73;;
6143;SDS011;3103;49.492;8.474;2022-10-30T06:16:27;16.40;;;5.80;;
6143;SDS011;3103;49.492;8.474;2022-10-30T06:19:12;15.50;;;6.20;;
6143;SDS011;3103;49.492;8.474;2022-10-30T06:21:45;10.07;;;5.43;;
6143;SDS011;3103;49.492;8.474;2022-10-30T06:24:18;15.27;;;6.13;;
6143;SDS011;3103;49.492;8.474;2022-10-30T06:27:00;20.80;;;6.27;;
6143;SDS011;3103;49.492;8.474;2022-10-30T06:29:28;17.87;;;6.97;;
6143;SDS011;3103;49.492;8.474;2022-10-30T06:31:54;17.10;;;6.30;;
6143;SDS011;3103;49.492;8.474;2022-10-30T06:34:25;14.97;;;6.07;;
6143;SDS011;3103;49.492;8.474;2022-10-30T06:36:52;14.87;;;6.07;;
6143;SDS011;3103;49.492;8.474;2022-10-30T06:39:20;13.87;;;5.80;;
6143;SDS011;3103;49.492;8.474;2022-10-30T06:42:19;14.83;;;5.23;;
6143;SDS011;3103;49.492;8.474;2022-10-30T06:44:56;17.30;;;5.93;;
6143;SDS011;3103;49.492;8.474;2022-10-30T06:47:23;10.87;;;5.20;;
6143;SDS011;3103;49.492;8.474;2022-10-30T06:49:50;14.47;;;6.57;;
6143;SDS011;3103;49.492;8.474;2022-10-30T06:52:17;9.40;;;5.50;;
6143;SDS011;3103;49.492;8.474;2022-10-30T06:54:49;11.27;;;5.47;;
6143;SDS011;3103;49.492;8.474;2022-10-30T06:57:38;16.00;;;6.03;;
6143;SDS011;3103;49.492;8.474;2022-10-30T07:00:26;12.43;;;5.90;;
6143;SDS011;3103;49.492;8.474;2022-10-30T07:03:09;12.47;;;5.80;;
6143;SDS011;3103;49.492;8.474;2022-10-30T07:05:37;8.03;;;4.90;;
6143;SDS011;3103;49.492;8.474;2022-10-30T07:08:04;12.97;;;6.60;;
6143;SDS011;3103;49.492;8.474;2022-10-30T07:10:31;10.77;;;5.03;;
6143;SDS011;3103;49.492;8.474;2022-10-30T07:13:17;9.37;;;5.80;;
6143;SDS011;3103;49.492;8.474;2022-10-30T07:15:58;11.23;;;5.83;;
6143;SDS011;3103;49.492;8.474;2022-10-30T07:18:31;8.57;;;5.30;;
6143;SDS011;3103;49.492;8.474;2022-10-30T07:20:59;12.63;;;5.87;;
6143;SDS011;3103;49.492;8.474;2022-10-30T07:23:27;8.93;;;5.67;;
6143;SDS011;3103;49.492;8.474;2022-10-30T07:26:04;13.37;;;6.13;;
6143;SDS011;3103;49.492;8.474;2022-10-30T07:28:34;13.33;;;5.60;;
6143;SDS011;3103;49.492;8.474;2022-10-30T07:31:23;15.17;;;5.87;;
6143;SDS011;3103;49.492;8.474;2022-10-30T07:34:19;13.93;;;5.67;;
6143;SDS011;3103;49.492;8.474;2022-10-30T07:37:17;15.37;;;6.10;;
6143;SDS011;3103;49.492;8.474;2022-10-30T07:39:52;12.07;;;6.00;;
6143;SDS011;3103;49.492;8.474;2022-10-30T07:42:37;9.93;;;5.33;;
6143;SDS011;3103;49.492;8.474;2022-10-30T07:45:07;15.70;;;5.57;;
6143;SDS011;3103;49.492;8.474;2022-10-30T07:48:07;12.03;;;5.73;;
6143;SDS011;3103;49.492;8.474;2022-10-30T07:50:42;11.47;;;5.73;;
6143;SDS011;3103;49.492;8.474;2022-10-30T07:53:09;14.17;;;5.73;;
6143;SDS011;3103;49.492;8.474;2022-10-30T07:55:36;10.23;;;5.97;;
6143;SDS011;3103;49.492;8.474;2022-10-30T07:58:25;14.53;;;5.70;;
6143;SDS011;3103;49.492;8.474;2022-10-30T08:01:11;9.53;;;5.47;;
6143;SDS011;3103;49.492;8.474;2022-10-30T08:03:38;16.40;;;5.43;;
6143;SDS011;3103;49.492;8.474;2022-10-30T08:06:20;10.20;;;5.57;;
6143;SDS011;3103;49.492;8.474;2022-10-30T08:08:52;9.87;;;5.30;;
6143;SDS011;3103;49.492;8.474;2022-10-30T08:11:24;9.73;;;5.10;;
6143;SDS011;3103;49.492;8.474;2022-10-30T08:13:52;7.67;;;5.27;;
6143;SDS011;3103;49.492;8.474;2022-10-30T08:16:19;21.57;;;8.37;;
6143;SDS011;3103;49.492;8.474;2022-10-30T08:18:48;11.03;;;5.67;;
6143;SDS011;3103;49.492;8.474;2022-10-30T08:21:17;17.93;;;6.97;;
6143;SDS011;3103;49.492;8.474;2022-10-30T08:24:19;7.37;;;5.17;;
6143;SDS011;3103;49.492;8.474;2022-10-30T08:26:50;11.37;;;5.50;;
6143;SDS011;3103;49.492;8.474;2022-10-30T08:29:18;15.40;;;6.50;;
6143;SDS011;3103;49.492;8.474;2022-10-30T08:31:47;20.33;;;8.80;;
6143;SDS011;3103;49.492;8.474;2022-10-30T08:34:21;14.47;;;6.23;;
6143;SDS011;3103;49.492;8.474;2022-10-30T08:36:53;10.90;;;6.77;;
6143;SDS011;3103;49.492;8.474;2022-10-30T08:39:20;12.37;;;6.17;;
6143;SDS011;3103;49.492;8.474;2022-10-30T08:41:56;13.33;;;7.03;;
6143;SDS011;3103;49.492;8.474;2022-10-30T08:44:28;8.87;;;5.23;;
6143;SDS011;3103;49.492;8.474;2022-10-30T08:47:13;12.87;;;6.77;;
6143;SDS011;3103;49.492;8.474;2022-10-30T08:49:40;15.57;;;7.17;;
6143;SDS011;3103;49.492;8.474;2022-10-30T08:52:07;12.17;;;5.37;;
6143;SDS011;3103;49.492;8.474;2022-10-30T08:54:35;10.80;;;5.83;;
6143;SDS011;3103;49.492;8.474;2022-10-30T08:57:01;9.57;;;5.63;;
6143;SDS011;3103;49.492;8.474;2022-10-30T08:59:31;16.17;;;5.40;;
6143;SDS011;3103;49.492;8.474;2022-10-30T09:02:02;20.77;;;10.03;;
6143;SDS011;3103;49.492;8.474;2022-10-30T09:04:53;26.67;;;14.97;;
6143;SDS011;3103;49.492;8.474;2022-10-30T09:07:48;17.23;;;8.83;;
6143;SDS011;3103;49.492;8.474;2022-10-30T09:10:34;24.17;;;15.23;;
6143;SDS011;3103;49.492;8.474;2022-10-30T09:13:01;15.20;;;6.77;;
6143;SDS011;3103;49.492;8.474;2022-10-30T09:15:28;22.47;;;11.20;;
6143;SDS011;3103;49.492;8.474;2022-10-30T09:17:59;19.73;;;10.23;;
6143;SDS011;3103;49.492;8.474;2022-10-30T09:20:28;14.17;;;6.77;;
6143;SDS011;3103;49.492;8.474;2022-10-30T09:22:56;15.33;;;8.27;;
6143;SDS011;3103;49.492;8.474;2022-10-30T09:25:24;24.77;;;14.63;;
6143;SDS011;3103;49.492;8.474;2022-10-30T09:28:02;11.63;;;6.10;;
6143;SDS011;3103;49.492;8.474;2022-10-30T09:30:42;12.57;;;5.70;;
6143;SDS011;3103;49.492;8.474;2022-10-30T09:33:13;11.33;;;5.23;;
6143;SDS011;3103;49.492;8.474;2022-10-30T09:36:02;11.00;;;5.17;;
6143;SDS011;3103;49.492;8.474;2022-10-30T09:38:29;12.03;;;5.70;;
6143;SDS011;3103;49.492;8.474;2022-10-30T09:44:00;16.67;;;5.10;;
6143;SDS011;3103;49.492;8.474;2022-10-30T09:46:52;15.47;;;7.07;;
6143;SDS011;3103;49.492;8.474;2022-10-30T09:55:45;11.20;;;5.50;;
6143;SDS011;3103;49.492;8.474;2022-10-30T10:01:20;11.97;;;5.10;;
6143;SDS011;3103;49.492;8.474;2022-10-30T10:06:39;12.60;;;4.90;;
6143;SDS011;3103;49.492;8.474;2022-10-30T10:09:28;10.00;;;4.97;;
6143;SDS011;3103;49.492;8.474;2022-10-30T10:12:25;12.73;;;4.60;;
6143;SDS011;3103;49.492;8.474;2022-10-30T10:15:40;14.17;;;4.70;;
6143;SDS011;3103;49.492;8.474;2022-10-30T10:18:16;10.63;;;4.83;;
6143;SDS011;3103;49.492;8.474;2022-10-30T10:20:51;9.70;;;4.50;;
6143;SDS011;3103;49.492;8.474;2022-10-30T10:23:31;8.27;;;4.70;;
6143;SDS011;3103;49.492;8.474;2022-10-30T10:26:06;10.20;;;4.03;;
6143;SDS011;3103;49.492;8.474;2022-10-30T10:35:09;13.57;;;4.80;;
6143;SDS011;3103;49.492;8.474;2022-10-30T10:50:47;14.63;;;4.57;;
6143;SDS011;3103;49.492;8.474;2022-10-30T10:53:29;13.33;;;4.90;;
6143;SDS011;3103;49.492;8.474;2022-10-30T10:56:08;8.93;;;4.27;;
6143;SDS011;3103;49.492;8.474;2022-10-30T11:01:37;7.47;;;4.50;;
6143;SDS011;3103;49.492;8.474;2022-10-30T11:06:37;13.07;;;4.80;;
6143;SDS011;3103;49.492;8.474;2022-10-30T11:09:13;12.77;;;4.50;;
6143;SDS011;3103;49.492;8.474;2022-10-30T11:11:42;10.97;;;4.80;;
6143;SDS011;3103;49.492;8.474;2022-10-30T11:14:14;8.00;;;4.17;;
6143;SDS011;3103;49.492;8.474;2022-10-30T11:16:50;14.20;;;4.40;;
6143;SDS011;3103;49.492;8.474;2022-10-30T11:19:20;7.07;;;4.20;;
6143;SDS011;3103;49.492;8.474;2022-10-30T11:21:47;10.20;;;4.67;;
6143;SDS011;3103;49.492;8.474;2022-10-30T11:26:55;16.80;;;8.10;;
6143;SDS011;3103;49.492;8.474;2022-10-30T11:29:27;30.30;;;14.57;;
6143;SDS011;3103;49.492;8.474;2022-10-30T11:31:59;18.53;;;11.67;;
6143;SDS011;3103;49.492;8.474;2022-10-30T11:34:33;16.93;;;6.87;;
6143;SDS011;3103;49.492;8.474;2022-10-30T11:37:01;15.27;;;6.20;;
6143;SDS011;3103;49.492;8.474;2022-10-30T11:39:33;10.00;;;6.33;;
6143;SDS011;3103;49.492;8.474;2022-10-30T11:42:05;10.83;;;4.93;;
6143;SDS011;3103;49.492;8.474;2022-10-30T11:44:42;9.97;;;5.10;;
6143;SDS011;3103;49.492;8.474;2022-10-30T11:47:11;14.80;;;5.23;;
6143;SDS011;3103;49.492;8.474;2022-10-30T11:49:51;7.77;;;4.27;;
6143;SDS011;3103;49.492;8.474;2022-10-30T11:52:22;13.60;;;4.77;;
6143;SDS011;3103;49.492;8.474;2022-10-30T11:54:55;8.77;;;4.10;;
6143;SDS011;3103;49.492;8.474;2022-10-30T11:57:37;7.90;;;3.53;;
6143;SDS011;3103;49.492;8.474;2022-10-30T12:00:16;10.80;;;4.03;;
6143;SDS011;3103;49.492;8.474;2022-10-30T12:02:52;10.03;;;4.53;;
6143;SDS011;3103;49.492;8.474;2022-10-30T12:10:42;6.53;;;3.53;;
6143;SDS011;3103;49.492;8.474;2022-10-30T12:13:17;8.33;;;3.77;;
6143;SDS011;3103;49.492;8.474;2022-10-30T12:15:47;9.73;;;4.60;;
6143;SDS011;3103;49.492;8.474;2022-10-30T12:18:21;8.77;;;4.80;;
6143;SDS011;3103;49.492;8.474;2022-10-30T12:20:57;16.00;;;8.00;;
6143;SDS011;3103;49.492;8.474;2022-10-30T12:23:25;12.83;;;7.87;;
6143;SDS011;3103;49.492;8.474;2022-10-30T12:25:54;15.80;;;8.03;;
6143;SDS011;3103;49.492;8.474;2022-10-30T12:28:32;10.17;;;5.13;;
6143;SDS011;3103;49.492;8.474;2022-10-30T12:31:05;10.20;;;5.37;;
6143;SDS011;3103;49.492;8.474;2022-10-30T12:33:36;18.80;;;8.30;;
6143;SDS011;3103;49.492;8.474;2022-10-30T12:36:13;10.37;;;5.07;;
6143;SDS011;3103;49.492;8.474;2022-10-30T12:38:46;8.73;;;5.50;;
6143;SDS011;3103;49.492;8.474;2022-10-30T12:42:29;10.77;;;5.67;;
6143;SDS011;3103;49.492;8.474;2022-10-30T12:44:38;11.83;;;4.50;;
6143;SDS011;3103;49.492;8.474;2022-10-30T12:47:16;11.37;;;4.07;;
6143;SDS011;3103;49.492;8.474;2022-10-30T12:49:53;8.67;;;4.30;;
6143;SDS011;3103;49.492;8.474;2022-10-30T12:52:36;11.93;;;5.60;;
6143;SDS011;3103;49.492;8.474;2022-10-30T13:01:24;9.63;;;4.63;;
6143;SDS011;3103;49.492;8.474;2022-10-30T13:04:16;10.23;;;3.67;;
6143;SDS011;3103;49.492;8.474;2022-10-30T13:09:43;10.07;;;4.60;;
6143;SDS011;3103;49.492;8.474;2022-10-30T13:12:24;17.97;;;4.40;;
6143;SDS011;3103;49.492;8.474;2022-10-30T13:14:56;9.63;;;3.47;;
6143;SDS011;3103;49.492;8.474;2022-10-30T13:17:29;14.60;;;4.13;;
6143;SDS011;3103;49.492;8.474;2022-10-30T13:19:55;12.27;;;4.57;;
6143;SDS011;3103;49.492;8.474;2022-10-30T13:22:24;9.03;;;3.67;;
6143;SDS011;3103;49.492;8.474;2022-10-30T13:28:05;7.50;;;3.72;;
6143;SDS011;3103;49.492;8.474;2022-10-30T13:30:45;12.27;;;5.03;;
6143;SDS011;3103;49.492;8.474;2022-10-30T13:36:13;11.73;;;3.60;;
6143;SDS011;3103;49.492;8.474;2022-10-30T13:38:56;5.10;;;3.53;;
6143;SDS011;3103;49.492;8.474;2022-10-30T13:41:38;9.63;;;4.18;;
6143;SDS011;3103;49.492;8.474;2022-10-30T13:46:47;11.25;;;3.70;;
6143;SDS011;3103;49.492;8.474;2022-10-30T13:54:43;10.93;;;4.43;;
6143;SDS011;3103;49.492;8.474;2022-10-30T13:57:26;10.80;;;4.07;;
6143;SDS011;3103;49.492;8.474;2022-10-30T14:02:41;8.50;;;3.58;;
6143;SDS011;3103;49.492;8.474;2022-10-30T14:08:21;12.95;;;4.80;;
6143;SDS011;3103;49.492;8.474;2022-10-30T14:10:51;9.60;;;4.80;;
6143;SDS011;3103;49.492;8.474;2022-10-30T14:13:26;10.98;;;3.65;;
6143;SDS011;3103;49.492;8.474;2022-10-30T14:15:56;6.57;;;3.60;;
6143;SDS011;3103;49.492;8.474;2022-10-30T14:18:27;14.63;;;5.35;;
6143;SDS011;3103;49.492;8.474;2022-10-30T14:32:00;16.00;;;6.60;;
6143;SDS011;3103;49.492;8.474;2022-10-30T14:39:48;8.65;;;4.75;;
6143;SDS011;3103;49.492;8.474;2022-10-30T14:45:00;7.15;;;4.45;;
6143;SDS011;3103;49.492;8.474;2022-10-30T14:50:56;15.98;;;9.18;;
6143;SDS011;3103;49.492;8.474;2022-10-30T15:04:11;17.52;;;6.60;;
6143;SDS011;3103;49.492;8.474;2022-10-30T15:06:46;17.75;;;5.80;;
6143;SDS011;3103;49.492;8.474;2022-10-30T15:12:04;14.73;;;7.07;;
6143;SDS011;3103;49.492;8.474;2022-10-30T15:20:07;14.50;;;6.80;;
6143;SDS011;3103;49.492;8.474;2022-10-30T15:23:03;18.37;;;8.03;;
6143;SDS011;3103;49.492;8.474;2022-10-30T15:25:34;15.03;;;6.70;;
6143;SDS011;3103;49.492;8.474;2022-10-30T15:28:05;13.77;;;5.90;;
6143;SDS011;3103;49.492;8.474;2022-10-30T15:30:32;12.88;;;5.82;;
6143;SDS011;3103;49.492;8.474;2022-10-30T15:32:58;15.82;;;4.70;;
6143;SDS011;3103;49.492;8.474;2022-10-30T15:35:26;10.68;;;6.40;;
6143;SDS011;3103;49.492;8.474;2022-10-30T15:37:58;16.95;;;8.52;;
6143;SDS011;3103;49.492;8.474;2022-10-30T15:40:25;8.23;;;5.28;;
6143;SDS011;3103;49.492;8.474;2022-10-30T15:42:53;11.43;;;3.85;;
6143;SDS011;3103;49.492;8.474;2022-10-30T15:48:04;12.82;;;5.43;;
6143;SDS011;3103;49.492;8.474;2022-10-30T15:50:52;10.27;;;4.77;;
6143;SDS011;3103;49.492;8.474;2022-10-30T15:56:31;8.88;;;5.03;;
6143;SDS011;3103;49.492;8.474;2022-10-30T15:59:26;11.13;;;4.53;;
6143;SDS011;3103;49.492;8.474;2022-10-30T16:01:56;9.07;;;4.87;;
6143;SDS011;3103;49.492;8.474;2022-10-30T16:04:24;10.33;;;5.67;;
6143;SDS011;3103;49.492;8.474;2022-10-30T16:07:00;9.35;;;4.60;;
6143;SDS011;3103;49.492;8.474;2022-10-30T16:09:30;9.85;;;5.15;;
6143;SDS011;3103;49.492;8.474;2022-10-30T16:11:58;13.80;;;6.77;;
6143;SDS011;3103;49.492;8.474;2022-10-30T16:14:26;11.17;;;4.90;;
6143;SDS011;3103;49.492;8.474;2022-10-30T16:16:58;12.55;;;5.13;;
6143;SDS011;3103;49.492;8.474;2022-10-30T16:19:26;9.70;;;5.22;;
6143;SDS011;3103;49.492;8.474;2022-10-30T16:21:56;9.10;;;4.73;;
6143;SDS011;3103;49.492;8.474;2022-10-30T16:24:29;11.13;;;4.87;;
6143;SDS011;3103;49.492;8.474;2022-10-30T16:27:02;9.80;;;4.97;;
6143;SDS011;3103;49.492;8.474;2022-10-30T16:29:30;10.57;;;5.30;;
6143;SDS011;3103;49.492;8.474;2022-10-30T16:31:59;9.33;;;4.90;;
6143;SDS011;3103;49.492;8.474;2022-10-30T16:34:28;8.10;;;4.43;;
6143;SDS011;3103;49.492;8.474;2022-10-30T16:36:57;17.37;;;11.37;;
6143;SDS011;3103;49.492;8.474;2022-10-30T16:39:28;18.60;;;9.47;;
6143;SDS011;3103;49.492;8.474;2022-10-30T16:42:00;16.23;;;7.17;;
6143;SDS011;3103;49.492;8.474;2022-10-30T16:44:33;15.20;;;7.60;;
6143;SDS011;3103;49.492;8.474;2022-10-30T16:47:10;14.73;;;8.00;;
6143;SDS011;3103;49.492;8.474;2022-10-30T16:50:04;14.10;;;6.60;;
6143;SDS011;3103;49.492;8.474;2022-10-30T16:52:51;21.40;;;12.00;;
6143;SDS011;3103;49.492;8.474;2022-10-30T16:55:20;15.23;;;9.03;;
6143;SDS011;3103;49.492;8.474;2022-10-30T16:57:53;17.03;;;9.87;;
6143;SDS011;3103;49.492;8.474;2022-10-30T17:00:26;17.10;;;9.20;;
6143;SDS011;3103;49.492;8.474;2022-10-30T17:03:07;17.93;;;10.27;;
6143;SDS011;3103;49.492;8.474;2022-10-30T17:05:37;16.57;;;8.37;;
6143;SDS011;3103;49.492;8.474;2022-10-30T17:10:44;14.67;;;8.33;;
6143;SDS011;3103;49.492;8.474;2022-10-30T17:13:29;27.70;;;14.07;;
6143;SDS011;3103;49.492;8.474;2022-10-30T17:18:59;33.17;;;19.03;;
6143;SDS011;3103;49.492;8.474;2022-10-30T17:21:45;34.97;;;17.77;;
6143;SDS011;3103;49.492;8.474;2022-10-30T17:24:18;26.97;;;13.83;;
6143;SDS011;3103;49.492;8.474;2022-10-30T17:26:55;26.17;;;13.03;;
6143;SDS011;3103;49.492;8.474;2022-10-30T17:32:21;16.60;;;8.83;;
6143;SDS011;3103;49.492;8.474;2022-10-30T17:34:54;20.90;;;8.43;;
6143;SDS011;3103;49.492;8.474;2022-10-30T17:37:26;21.07;;;8.33;;
6143;SDS011;3103;49.492;8.474;2022-10-30T17:39:53;24.53;;;8.83;;
6143;SDS011;3103;49.492;8.474;2022-10-30T17:42:20;18.67;;;7.67;;
6143;SDS011;3103;49.492;8.474;2022-10-30T17:44:48;17.97;;;8.00;;
6143;SDS011;3103;49.492;8.474;2022-10-30T17:47:16;21.80;;;12.90;;
6143;SDS011;3103;49.492;8.474;2022-10-30T17:49:46;23.47;;;12.77;;
6143;SDS011;3103;49.492;8.474;2022-10-30T17:52:15;21.97;;;11.37;;
6143;SDS011;3103;49.492;8.474;2022-10-30T17:54:46;17.43;;;10.13;;
6143;SDS011;3103;49.492;8.474;2022-10-30T17:57:16;16.90;;;7.63;;
6143;SDS011;3103;49.492;8.474;2022-10-30T17:59:43;15.87;;;9.00;;
6143;SDS011;3103;49.492;8.474;2022-10-30T18:02:11;21.30;;;8.07;;
6143;SDS011;3103;49.492;8.474;2022-10-30T18:04:40;18.43;;;6.90;;
6143;SDS011;3103;49.492;8.474;2022-10-30T18:07:09;10.30;;;6.30;;
6143;SDS011;3103;49.492;8.474;2022-10-30T18:09:37;13.00;;;6.80;;
6143;SDS011;3103;49.492;8.474;2022-10-30T18:12:04;14.17;;;6.60;;
6143;SDS011;3103;49.492;8.474;2022-10-30T18:14:33;15.30;;;5.87;;